Flight Track Log - Related Links

Times and Time Zones

All times are in EDT time to prevent confusion due to time zone crossing. See the SKW7427 flight status page for this flight to view local times or setup timezone preferences in your user account.

Time Position Orientation Groundspeed Altitude Reporting Facility
EDT Latitude Longitude Course Direction KTS MPH feet Rate Location/Type
Sat 08:33:14 PM 44.8667 -93.1833 North 150 173 2,100  Level Minneapolis TRACON
Sat 08:33:42 PM 44.8697 -93.1558 81° East 159 183 2,800 2,360 Climbing Minneapolis Center
Sat 08:34:43 PM 44.8933 -93.0875 64° Northeast 233 268 5,600 2,754 Climbing Minneapolis Center
Sat 08:35:44 PM 44.9689 -93.0808 North 276 318 8,400 2,878 Climbing Minneapolis Center
Sat 08:36:00 PM 45.2807 -93.3667 North  Level FlightAware Approximate
Sat 08:36:46 PM 45.0647 -93.0686 North 290 334 11,500  Level Minneapolis Center
Sat 08:37:00 PM 45.3896 -93.3667 North  Level FlightAware Approximate
Sat 08:37:47 PM 45.1539 -93.0728 358° North 320 368 13,600  Level Minneapolis Center
Sat 08:38:00 PM 45.4984 -93.3667 North  Level FlightAware Approximate
Sat 08:38:48 PM 45.2497 -93.0831 356° North 349 402 14,900  Level Minneapolis Center
Sat 08:39:49 PM 45.3494 -93.0919 356° North 361 415 16,400 1,475 Climbing Minneapolis Center
Sat 08:40:50 PM 45.4500 -93.1019 356° North 365 420 17,900 1,426 Climbing Minneapolis Center
Sat 08:41:51 PM 45.5542 -93.1128 356° North 375 432 19,300 1,377 Climbing Minneapolis Center
Sat 08:42:52 PM 45.6597 -93.1219 357° North 381 438 20,700 1,377 Climbing Minneapolis Center
Sat 08:43:53 PM 45.7681 -93.1331 356° North 388 447 22,100 1,171 Climbing Minneapolis Center
Sat 08:44:55 PM 45.8758 -93.1428 356° North 390 449 23,100 1,024 Climbing Minneapolis Center
Sat 08:45:56 PM 46.0089 -93.1531 357° North 398 458 24,200 934 Climbing Minneapolis Center
Sat 08:46:57 PM 46.1214 -93.1644 356° North 405 466 25,000 787 Climbing Minneapolis Center
Sat 08:47:58 PM 46.2331 -93.1753 356° North 410 472 25,800 1,082 Climbing Minneapolis Center
Sat 08:48:59 PM 46.3486 -93.1864 356° North 411 473 27,200 1,279 Climbing Minneapolis Center
Sat 08:50:00 PM 46.4581 -93.1967 356° North 406 467 28,400 1,171 Climbing Minneapolis Center
Sat 08:51:02 PM 46.5658 -93.2061 357° North 396 456 29,600 780 Climbing Minneapolis Center
Sat 08:52:03 PM 46.6744 -93.2164 356° North 392 451 30,000 197 Climbing Minneapolis Center
Sat 08:53:04 PM 46.7892 -93.2283 356° North 404 465 30,000  Level Minneapolis Center
Sat 08:54:05 PM 46.9067 -93.2403 356° North 418 481 30,000  Level Minneapolis Center
Sat 08:55:06 PM 47.0275 -93.2514 356° North 428 493 30,000  Level Minneapolis Center
Sat 08:56:08 PM 47.1489 -93.2628 356° North 435 501 30,000  Level Minneapolis Center
Sat 08:57:09 PM 47.2864 -93.2758 356° North 418 481 30,000  Level Minneapolis Center
Sat 08:58:10 PM 47.3947 -93.2869 356° North 403 464 30,000 -344 Level Minneapolis Center
Sat 08:59:11 PM 47.4906 -93.2950 357° North 395 455 29,300 -2,164 Descending Minneapolis Center
Sat 09:00:12 PM 47.6033 -93.3067 356° North 401 461 25,600 -4,000 Descending Minneapolis Center
Sat 09:01:14 PM 47.7403 -93.3211 356° North 409 471 21,100 -3,902 Descending Minneapolis Center
Sat 09:02:15 PM 47.8528 -93.3331 356° North 408 470 17,600 -3,590 Descending Minneapolis Center
Sat 09:03:16 PM 47.9608 -93.3436 356° North 401 461 13,800 -3,246 Descending Minneapolis Center
Sat 09:04:17 PM 48.0625 -93.3536 356° North 386 444 11,000 -1,951 Descending Minneapolis Center
Sat 09:05:19 PM 48.1464 -93.3625 356° North 335 386 9,800 -1,512 Descending Minneapolis Center
Sat 09:06:20 PM 48.2256 -93.3697 357° North 304 350 7,900 -1,820 Descending Minneapolis Center
Sat 09:07:21 PM 48.3019 -93.3786 356° North 289 333 6,100 -1,770 Descending Minneapolis Center
Sat 09:08:22 PM 48.3761 -93.3694 North 277 319 4,300 -1,279 Descending Minneapolis Center
Sat 09:09:23 PM 48.4442 -93.3394 16° North 265 305 3,500 -590 Descending Minneapolis Center
Sat 09:10:24 PM 48.5114 -93.3167 13° North 250 288 3,100 -393 Descending Minneapolis Center
Sat 09:12:00 PM 48.5500 -93.4000 342° North  Level FlightAware Approximate

Login

Don't have an account? Register now (free) for customized features, flight alerts, and more!